sensor_id;sensor_type;location;lat;lon;timestamp;temperature;humidity
61201;DHT22;47065;52.898;6.992;2023-12-20T00:00:36;5.30;99.90
61201;DHT22;47065;52.898;6.992;2023-12-20T00:03:03;5.30;99.90
61201;DHT22;47065;52.898;6.992;2023-12-20T00:05:29;5.30;99.90
61201;DHT22;47065;52.898;6.992;2023-12-20T00:07:57;5.40;99.90
61201;DHT22;47065;52.898;6.992;2023-12-20T00:10:23;5.40;99.90
61201;DHT22;47065;52.898;6.992;2023-12-20T00:12:48;5.40;99.90
61201;DHT22;47065;52.898;6.992;2023-12-20T00:15:14;5.40;99.90
61201;DHT22;47065;52.898;6.992;2023-12-20T00:17:40;5.50;99.90
61201;DHT22;47065;52.898;6.992;2023-12-20T00:20:06;5.50;99.90
61201;DHT22;47065;52.898;6.992;2023-12-20T00:22:32;5.50;99.90
61201;DHT22;47065;52.898;6.992;2023-12-20T00:24:57;5.50;99.90
61201;DHT22;47065;52.898;6.992;2023-12-20T00:27:23;5.50;99.90
61201;DHT22;47065;52.898;6.992;2023-12-20T00:29:49;5.50;99.90
61201;DHT22;47065;52.898;6.992;2023-12-20T00:32:16;5.50;99.90
61201;DHT22;47065;52.898;6.992;2023-12-20T00:34:42;5.60;99.90
61201;DHT22;47065;52.898;6.992;2023-12-20T00:37:08;5.60;99.90
61201;DHT22;47065;52.898;6.992;2023-12-20T00:39:34;5.60;99.90
61201;DHT22;47065;52.898;6.992;2023-12-20T00:41:59;5.50;99.90
61201;DHT22;47065;52.898;6.992;2023-12-20T00:44:25;5.50;99.90
61201;DHT22;47065;52.898;6.992;2023-12-20T00:46:51;5.50;99.90
61201;DHT22;47065;52.898;6.992;2023-12-20T00:49:17;5.50;99.90
61201;DHT22;47065;52.898;6.992;2023-12-20T00:51:43;5.50;99.90
61201;DHT22;47065;52.898;6.992;2023-12-20T00:54:08;5.50;99.90
61201;DHT22;47065;52.898;6.992;2023-12-20T00:56:35;5.50;99.90
61201;DHT22;47065;52.898;6.992;2023-12-20T00:59:00;5.50;99.90
61201;DHT22;47065;52.898;6.992;2023-12-20T01:01:26;5.40;99.90
61201;DHT22;47065;52.898;6.992;2023-12-20T01:03:52;5.40;99.90
61201;DHT22;47065;52.898;6.992;2023-12-20T01:06:18;5.30;99.90
61201;DHT22;47065;52.898;6.992;2023-12-20T01:08:44;5.40;99.90
61201;DHT22;47065;52.898;6.992;2023-12-20T01:11:10;5.30;99.90
61201;DHT22;47065;52.898;6.992;2023-12-20T01:13:35;5.40;99.90
61201;DHT22;47065;52.898;6.992;2023-12-20T01:16:01;5.30;99.90
61201;DHT22;47065;52.898;6.992;2023-12-20T01:18:27;5.30;99.90
61201;DHT22;47065;52.898;6.992;2023-12-20T01:20:53;5.30;99.90
61201;DHT22;47065;52.898;6.992;2023-12-20T01:23:19;5.30;99.90
61201;DHT22;47065;52.898;6.992;2023-12-20T01:25:44;5.40;99.90
61201;DHT22;47065;52.898;6.992;2023-12-20T01:28:10;5.40;99.90
61201;DHT22;47065;52.898;6.992;2023-12-20T01:30:35;5.40;99.90
61201;DHT22;47065;52.898;6.992;2023-12-20T01:33:01;5.40;99.90
61201;DHT22;47065;52.898;6.992;2023-12-20T01:35:27;5.40;99.90
61201;DHT22;47065;52.898;6.992;2023-12-20T01:37:52;5.50;99.90
61201;DHT22;47065;52.898;6.992;2023-12-20T01:40:22;5.50;99.90
61201;DHT22;47065;52.898;6.992;2023-12-20T01:42:57;5.50;99.90
61201;DHT22;47065;52.898;6.992;2023-12-20T01:45:23;5.50;99.90
61201;DHT22;47065;52.898;6.992;2023-12-20T01:47:48;5.50;99.90
61201;DHT22;47065;52.898;6.992;2023-12-20T01:50:14;5.50;99.90
61201;DHT22;47065;52.898;6.992;2023-12-20T01:52:41;5.50;99.90
61201;DHT22;47065;52.898;6.992;2023-12-20T01:55:07;5.60;99.90
61201;DHT22;47065;52.898;6.992;2023-12-20T01:57:39;5.60;99.90
61201;DHT22;47065;52.898;6.992;2023-12-20T02:00:06;5.60;99.90
61201;DHT22;47065;52.898;6.992;2023-12-20T02:02:32;5.60;99.90
61201;DHT22;47065;52.898;6.992;2023-12-20T02:04:58;5.60;99.90
61201;DHT22;47065;52.898;6.992;2023-12-20T02:07:24;5.60;99.90
61201;DHT22;47065;52.898;6.992;2023-12-20T02:09:50;5.60;99.90
61201;DHT22;47065;52.898;6.992;2023-12-20T02:12:16;5.60;99.90
61201;DHT22;47065;52.898;6.992;2023-12-20T02:14:41;5.60;99.90
61201;DHT22;47065;52.898;6.992;2023-12-20T02:17:07;5.60;99.90
61201;DHT22;47065;52.898;6.992;2023-12-20T02:19:33;5.60;99.90
61201;DHT22;47065;52.898;6.992;2023-12-20T02:22:10;5.70;99.90
61201;DHT22;47065;52.898;6.992;2023-12-20T02:24:36;5.70;99.90
61201;DHT22;47065;52.898;6.992;2023-12-20T02:27:03;5.70;99.90
61201;DHT22;47065;52.898;6.992;2023-12-20T02:29:31;5.70;99.90
61201;DHT22;47065;52.898;6.992;2023-12-20T02:31:56;5.70;99.90
61201;DHT22;47065;52.898;6.992;2023-12-20T02:34:22;5.70;99.90
61201;DHT22;47065;52.898;6.992;2023-12-20T02:36:47;5.80;99.90
61201;DHT22;47065;52.898;6.992;2023-12-20T02:39:13;5.80;99.90
61201;DHT22;47065;52.898;6.992;2023-12-20T02:41:39;5.80;99.90
61201;DHT22;47065;52.898;6.992;2023-12-20T02:44:05;5.80;99.90
61201;DHT22;47065;52.898;6.992;2023-12-20T02:46:30;5.80;99.90
61201;DHT22;47065;52.898;6.992;2023-12-20T02:48:56;5.80;99.90
61201;DHT22;47065;52.898;6.992;2023-12-20T02:51:22;5.80;99.90
61201;DHT22;47065;52.898;6.992;2023-12-20T02:53:47;5.90;99.90
61201;DHT22;47065;52.898;6.992;2023-12-20T02:56:13;5.90;99.90
61201;DHT22;47065;52.898;6.992;2023-12-20T02:58:40;5.90;99.90
61201;DHT22;47065;52.898;6.992;2023-12-20T03:01:05;5.90;99.90
61201;DHT22;47065;52.898;6.992;2023-12-20T03:03:31;5.90;99.90
61201;DHT22;47065;52.898;6.992;2023-12-20T03:05:57;5.90;99.90
61201;DHT22;47065;52.898;6.992;2023-12-20T03:08:23;5.90;99.90
61201;DHT22;47065;52.898;6.992;2023-12-20T03:10:48;6.00;99.90
61201;DHT22;47065;52.898;6.992;2023-12-20T03:13:14;6.00;99.90
61201;DHT22;47065;52.898;6.992;2023-12-20T03:15:40;6.00;99.90
61201;DHT22;47065;52.898;6.992;2023-12-20T03:18:06;6.00;99.90
61201;DHT22;47065;52.898;6.992;2023-12-20T03:20:31;6.00;99.90
61201;DHT22;47065;52.898;6.992;2023-12-20T03:23:00;6.00;99.90
61201;DHT22;47065;52.898;6.992;2023-12-20T03:25:25;6.00;99.90
61201;DHT22;47065;52.898;6.992;2023-12-20T03:27:51;6.00;99.90
61201;DHT22;47065;52.898;6.992;2023-12-20T03:30:17;6.00;99.90
61201;DHT22;47065;52.898;6.992;2023-12-20T03:32:43;6.00;99.90
61201;DHT22;47065;52.898;6.992;2023-12-20T03:35:09;6.00;99.90
61201;DHT22;47065;52.898;6.992;2023-12-20T03:37:34;6.00;99.90
61201;DHT22;47065;52.898;6.992;2023-12-20T03:40:01;6.00;99.90
61201;DHT22;47065;52.898;6.992;2023-12-20T03:42:26;6.00;99.90
61201;DHT22;47065;52.898;6.992;2023-12-20T03:44:52;6.00;99.90
61201;DHT22;47065;52.898;6.992;2023-12-20T03:47:17;6.00;99.90
61201;DHT22;47065;52.898;6.992;2023-12-20T03:49:43;6.00;99.90
61201;DHT22;47065;52.898;6.992;2023-12-20T03:52:08;6.00;99.90
61201;DHT22;47065;52.898;6.992;2023-12-20T03:54:37;5.90;99.90
61201;DHT22;47065;52.898;6.992;2023-12-20T03:57:03;5.90;99.90
61201;DHT22;47065;52.898;6.992;2023-12-20T03:59:29;5.90;99.90
61201;DHT22;47065;52.898;6.992;2023-12-20T04:01:55;5.90;99.90
61201;DHT22;47065;52.898;6.992;2023-12-20T04:04:20;5.90;99.90
61201;DHT22;47065;52.898;6.992;2023-12-20T04:06:46;5.90;99.90
61201;DHT22;47065;52.898;6.992;2023-12-20T04:09:11;5.90;99.90
61201;DHT22;47065;52.898;6.992;2023-12-20T04:11:37;5.90;99.90
61201;DHT22;47065;52.898;6.992;2023-12-20T04:14:03;6.00;99.90
61201;DHT22;47065;52.898;6.992;2023-12-20T04:16:30;6.00;99.90
61201;DHT22;47065;52.898;6.992;2023-12-20T04:18:56;6.00;99.90
61201;DHT22;47065;52.898;6.992;2023-12-20T04:21:21;6.00;99.90
61201;DHT22;47065;52.898;6.992;2023-12-20T04:23:47;6.00;99.90
61201;DHT22;47065;52.898;6.992;2023-12-20T04:26:13;6.10;99.90
61201;DHT22;47065;52.898;6.992;2023-12-20T04:28:38;6.10;99.90
61201;DHT22;47065;52.898;6.992;2023-12-20T04:31:04;6.10;99.90
61201;DHT22;47065;52.898;6.992;2023-12-20T04:33:29;6.10;99.90
61201;DHT22;47065;52.898;6.992;2023-12-20T04:35:55;6.00;99.90
61201;DHT22;47065;52.898;6.992;2023-12-20T04:38:21;6.00;99.90
61201;DHT22;47065;52.898;6.992;2023-12-20T04:40:46;6.00;99.90
61201;DHT22;47065;52.898;6.992;2023-12-20T04:43:13;6.00;99.90
61201;DHT22;47065;52.898;6.992;2023-12-20T04:45:39;6.00;99.90
61201;DHT22;47065;52.898;6.992;2023-12-20T04:48:05;6.10;99.90
61201;DHT22;47065;52.898;6.992;2023-12-20T04:50:30;6.10;99.90
61201;DHT22;47065;52.898;6.992;2023-12-20T04:52:56;6.10;99.90
61201;DHT22;47065;52.898;6.992;2023-12-20T04:55:22;6.10;99.90
61201;DHT22;47065;52.898;6.992;2023-12-20T04:57:47;6.10;99.90
61201;DHT22;47065;52.898;6.992;2023-12-20T05:00:13;6.10;99.90
61201;DHT22;47065;52.898;6.992;2023-12-20T05:02:41;6.10;99.90
61201;DHT22;47065;52.898;6.992;2023-12-20T05:05:07;6.10;99.90
61201;DHT22;47065;52.898;6.992;2023-12-20T05:07:33;6.20;99.90
61201;DHT22;47065;52.898;6.992;2023-12-20T05:09:59;6.20;99.90
61201;DHT22;47065;52.898;6.992;2023-12-20T05:12:24;6.20;99.90
61201;DHT22;47065;52.898;6.992;2023-12-20T05:14:52;6.20;99.90
61201;DHT22;47065;52.898;6.992;2023-12-20T05:17:18;6.20;99.90
61201;DHT22;47065;52.898;6.992;2023-12-20T05:19:45;6.20;99.90
61201;DHT22;47065;52.898;6.992;2023-12-20T05:22:11;6.20;99.90
61201;DHT22;47065;52.898;6.992;2023-12-20T05:24:37;6.20;99.90
61201;DHT22;47065;52.898;6.992;2023-12-20T05:27:03;6.30;99.90
61201;DHT22;47065;52.898;6.992;2023-12-20T05:29:28;6.30;99.90
61201;DHT22;47065;52.898;6.992;2023-12-20T05:31:54;6.30;99.90
61201;DHT22;47065;52.898;6.992;2023-12-20T05:34:19;6.30;99.90
61201;DHT22;47065;52.898;6.992;2023-12-20T05:36:45;6.40;99.90
61201;DHT22;47065;52.898;6.992;2023-12-20T05:39:11;6.40;99.90
61201;DHT22;47065;52.898;6.992;2023-12-20T05:41:37;6.40;99.90
61201;DHT22;47065;52.898;6.992;2023-12-20T05:44:02;6.40;99.90
61201;DHT22;47065;52.898;6.992;2023-12-20T05:46:28;6.50;99.90
61201;DHT22;47065;52.898;6.992;2023-12-20T05:48:54;6.50;99.90
61201;DHT22;47065;52.898;6.992;2023-12-20T05:51:19;6.50;99.90
61201;DHT22;47065;52.898;6.992;2023-12-20T05:53:45;6.50;99.90
61201;DHT22;47065;52.898;6.992;2023-12-20T05:56:11;6.60;99.90
61201;DHT22;47065;52.898;6.992;2023-12-20T05:58:38;6.60;99.90
61201;DHT22;47065;52.898;6.992;2023-12-20T06:01:04;6.60;99.90
61201;DHT22;47065;52.898;6.992;2023-12-20T06:03:30;6.60;99.90
61201;DHT22;47065;52.898;6.992;2023-12-20T06:05:56;6.60;99.90
61201;DHT22;47065;52.898;6.992;2023-12-20T06:08:21;6.60;99.90
61201;DHT22;47065;52.898;6.992;2023-12-20T06:10:47;6.70;99.90
61201;DHT22;47065;52.898;6.992;2023-12-20T06:13:13;6.70;99.90
61201;DHT22;47065;52.898;6.992;2023-12-20T06:15:39;6.70;99.90
61201;DHT22;47065;52.898;6.992;2023-12-20T06:18:06;6.70;99.90
61201;DHT22;47065;52.898;6.992;2023-12-20T06:20:32;6.70;99.90
61201;DHT22;47065;52.898;6.992;2023-12-20T06:22:58;6.70;99.90
61201;DHT22;47065;52.898;6.992;2023-12-20T06:25:24;6.80;99.90
61201;DHT22;47065;52.898;6.992;2023-12-20T06:27:49;6.80;99.90
61201;DHT22;47065;52.898;6.992;2023-12-20T06:30:16;6.80;99.90
61201;DHT22;47065;52.898;6.992;2023-12-20T06:32:42;6.90;99.90
61201;DHT22;47065;52.898;6.992;2023-12-20T06:35:08;6.90;99.90
61201;DHT22;47065;52.898;6.992;2023-12-20T06:37:34;6.90;99.90
61201;DHT22;47065;52.898;6.992;2023-12-20T06:40:01;6.90;99.90
61201;DHT22;47065;52.898;6.992;2023-12-20T06:42:27;6.90;99.90
61201;DHT22;47065;52.898;6.992;2023-12-20T06:44:52;6.90;99.90
61201;DHT22;47065;52.898;6.992;2023-12-20T06:47:18;6.90;99.90
61201;DHT22;47065;52.898;6.992;2023-12-20T06:49:44;6.90;99.90
61201;DHT22;47065;52.898;6.992;2023-12-20T06:52:09;7.00;99.90
61201;DHT22;47065;52.898;6.992;2023-12-20T06:54:35;6.90;99.90
61201;DHT22;47065;52.898;6.992;2023-12-20T06:57:01;6.90;99.90
61201;DHT22;47065;52.898;6.992;2023-12-20T06:59:29;6.90;99.90
61201;DHT22;47065;52.898;6.992;2023-12-20T07:01:54;7.00;99.90
61201;DHT22;47065;52.898;6.992;2023-12-20T07:04:20;7.00;99.90
61201;DHT22;47065;52.898;6.992;2023-12-20T07:06:48;7.00;99.90
61201;DHT22;47065;52.898;6.992;2023-12-20T07:09:14;7.00;99.90
61201;DHT22;47065;52.898;6.992;2023-12-20T07:11:39;7.00;99.90
61201;DHT22;47065;52.898;6.992;2023-12-20T07:14:05;7.00;99.90
61201;DHT22;47065;52.898;6.992;2023-12-20T07:16:31;7.00;99.90
61201;DHT22;47065;52.898;6.992;2023-12-20T07:18:57;7.00;99.90
61201;DHT22;47065;52.898;6.992;2023-12-20T07:21:23;7.00;99.90
61201;DHT22;47065;52.898;6.992;2023-12-20T07:23:48;7.00;99.90
61201;DHT22;47065;52.898;6.992;2023-12-20T07:26:15;7.10;99.90
61201;DHT22;47065;52.898;6.992;2023-12-20T07:28:40;7.00;99.90
61201;DHT22;47065;52.898;6.992;2023-12-20T07:31:06;7.10;99.90
61201;DHT22;47065;52.898;6.992;2023-12-20T07:33:32;7.00;99.90
61201;DHT22;47065;52.898;6.992;2023-12-20T07:35:59;7.10;99.90
61201;DHT22;47065;52.898;6.992;2023-12-20T07:38:25;7.10;99.90
61201;DHT22;47065;52.898;6.992;2023-12-20T07:40:50;7.10;99.90
61201;DHT22;47065;52.898;6.992;2023-12-20T07:43:16;7.10;99.90
61201;DHT22;47065;52.898;6.992;2023-12-20T07:45:42;7.10;99.90
61201;DHT22;47065;52.898;6.992;2023-12-20T07:48:07;7.10;99.90
61201;DHT22;47065;52.898;6.992;2023-12-20T07:50:34;7.10;99.90
61201;DHT22;47065;52.898;6.992;2023-12-20T07:52:59;7.10;99.90
61201;DHT22;47065;52.898;6.992;2023-12-20T07:55:26;7.10;99.90
61201;DHT22;47065;52.898;6.992;2023-12-20T07:57:52;7.10;99.90
61201;DHT22;47065;52.898;6.992;2023-12-20T08:00:18;7.10;99.90
61201;DHT22;47065;52.898;6.992;2023-12-20T08:02:44;7.00;99.90
61201;DHT22;47065;52.898;6.992;2023-12-20T08:05:09;7.00;99.90
61201;DHT22;47065;52.898;6.992;2023-12-20T08:07:35;7.00;99.90
61201;DHT22;47065;52.898;6.992;2023-12-20T08:10:01;7.00;99.90
61201;DHT22;47065;52.898;6.992;2023-12-20T08:12:26;7.00;99.90
61201;DHT22;47065;52.898;6.992;2023-12-20T08:14:53;7.00;99.90
61201;DHT22;47065;52.898;6.992;2023-12-20T08:17:19;7.00;99.90
61201;DHT22;47065;52.898;6.992;2023-12-20T08:19:45;7.00;99.90
61201;DHT22;47065;52.898;6.992;2023-12-20T08:22:11;7.10;99.90
61201;DHT22;47065;52.898;6.992;2023-12-20T08:24:37;7.00;99.90
61201;DHT22;47065;52.898;6.992;2023-12-20T08:27:03;7.10;99.90
61201;DHT22;47065;52.898;6.992;2023-12-20T08:29:29;7.10;99.90
61201;DHT22;47065;52.898;6.992;2023-12-20T08:31:55;7.10;99.90
61201;DHT22;47065;52.898;6.992;2023-12-20T08:34:21;7.10;99.90
61201;DHT22;47065;52.898;6.992;2023-12-20T08:36:46;7.20;99.90
61201;DHT22;47065;52.898;6.992;2023-12-20T08:39:12;7.20;99.90
61201;DHT22;47065;52.898;6.992;2023-12-20T08:41:38;7.20;99.90
61201;DHT22;47065;52.898;6.992;2023-12-20T08:44:03;7.20;99.90
61201;DHT22;47065;52.898;6.992;2023-12-20T08:46:29;7.30;99.90
61201;DHT22;47065;52.898;6.992;2023-12-20T08:48:55;7.30;99.90
61201;DHT22;47065;52.898;6.992;2023-12-20T08:51:20;7.30;99.90
61201;DHT22;47065;52.898;6.992;2023-12-20T08:53:48;7.40;99.90
61201;DHT22;47065;52.898;6.992;2023-12-20T08:56:15;7.40;99.90
61201;DHT22;47065;52.898;6.992;2023-12-20T08:58:41;7.40;99.90
61201;DHT22;47065;52.898;6.992;2023-12-20T09:01:07;7.40;99.90
61201;DHT22;47065;52.898;6.992;2023-12-20T09:03:33;7.40;99.90
61201;DHT22;47065;52.898;6.992;2023-12-20T09:05:58;7.40;99.90
61201;DHT22;47065;52.898;6.992;2023-12-20T09:08:24;7.30;99.90
61201;DHT22;47065;52.898;6.992;2023-12-20T09:10:50;7.20;99.90
61201;DHT22;47065;52.898;6.992;2023-12-20T09:13:16;7.20;99.90
61201;DHT22;47065;52.898;6.992;2023-12-20T09:15:41;7.20;99.90
61201;DHT22;47065;52.898;6.992;2023-12-20T09:18:07;7.10;99.90
61201;DHT22;47065;52.898;6.992;2023-12-20T09:20:35;7.10;99.90
61201;DHT22;47065;52.898;6.992;2023-12-20T09:23:01;7.10;99.90
61201;DHT22;47065;52.898;6.992;2023-12-20T09:25:26;7.10;99.90
61201;DHT22;47065;52.898;6.992;2023-12-20T09:27:52;7.10;99.90
61201;DHT22;47065;52.898;6.992;2023-12-20T09:30:18;7.10;99.90
61201;DHT22;47065;52.898;6.992;2023-12-20T09:32:45;7.10;99.90
61201;DHT22;47065;52.898;6.992;2023-12-20T09:35:11;7.20;99.90
61201;DHT22;47065;52.898;6.992;2023-12-20T09:37:36;7.20;99.90
61201;DHT22;47065;52.898;6.992;2023-12-20T09:40:03;7.30;99.90
61201;DHT22;47065;52.898;6.992;2023-12-20T09:42:39;7.40;99.90
61201;DHT22;47065;52.898;6.992;2023-12-20T09:45:09;7.50;99.90
61201;DHT22;47065;52.898;6.992;2023-12-20T09:47:35;7.50;99.90
61201;DHT22;47065;52.898;6.992;2023-12-20T09:50:02;7.60;99.90
61201;DHT22;47065;52.898;6.992;2023-12-20T09:52:28;7.60;99.90
61201;DHT22;47065;52.898;6.992;2023-12-20T09:54:55;7.30;99.90
61201;DHT22;47065;52.898;6.992;2023-12-20T09:57:22;7.00;99.90
61201;DHT22;47065;52.898;6.992;2023-12-20T09:59:48;6.70;99.90
61201;DHT22;47065;52.898;6.992;2023-12-20T10:02:14;6.50;99.90
61201;DHT22;47065;52.898;6.992;2023-12-20T10:04:46;6.40;99.90
61201;DHT22;47065;52.898;6.992;2023-12-20T10:07:12;6.20;99.90
61201;DHT22;47065;52.898;6.992;2023-12-20T10:09:38;6.10;99.90
61201;DHT22;47065;52.898;6.992;2023-12-20T10:12:05;6.10;99.90
61201;DHT22;47065;52.898;6.992;2023-12-20T10:14:32;6.00;99.90
61201;DHT22;47065;52.898;6.992;2023-12-20T10:17:04;6.00;99.90
61201;DHT22;47065;52.898;6.992;2023-12-20T10:19:31;5.90;99.90
61201;DHT22;47065;52.898;6.992;2023-12-20T10:21:59;5.90;99.90
61201;DHT22;47065;52.898;6.992;2023-12-20T10:24:25;5.90;99.90
61201;DHT22;47065;52.898;6.992;2023-12-20T10:27:03;5.90;99.90
61201;DHT22;47065;52.898;6.992;2023-12-20T10:29:35;5.90;99.90
61201;DHT22;47065;52.898;6.992;2023-12-20T10:32:24;5.90;99.90
61201;DHT22;47065;52.898;6.992;2023-12-20T10:34:51;5.90;99.90
61201;DHT22;47065;52.898;6.992;2023-12-20T10:37:16;5.90;99.90
61201;DHT22;47065;52.898;6.992;2023-12-20T10:39:43;5.90;99.90
61201;DHT22;47065;52.898;6.992;2023-12-20T10:42:12;6.00;99.90
61201;DHT22;47065;52.898;6.992;2023-12-20T10:44:39;6.00;99.90
61201;DHT22;47065;52.898;6.992;2023-12-20T10:47:05;6.00;99.90
61201;DHT22;47065;52.898;6.992;2023-12-20T10:49:34;6.00;99.90
61201;DHT22;47065;52.898;6.992;2023-12-20T10:52:02;6.00;99.90
61201;DHT22;47065;52.898;6.992;2023-12-20T10:54:29;6.10;99.90
61201;DHT22;47065;52.898;6.992;2023-12-20T10:56:57;6.10;99.90
61201;DHT22;47065;52.898;6.992;2023-12-20T10:59:24;6.00;99.90
61201;DHT22;47065;52.898;6.992;2023-12-20T11:01:50;6.10;99.90
61201;DHT22;47065;52.898;6.992;2023-12-20T11:04:22;6.10;99.90
61201;DHT22;47065;52.898;6.992;2023-12-20T11:06:53;6.10;99.90
61201;DHT22;47065;52.898;6.992;2023-12-20T11:09:24;6.10;99.90
61201;DHT22;47065;52.898;6.992;2023-12-20T11:12:02;6.10;99.90
61201;DHT22;47065;52.898;6.992;2023-12-20T11:14:41;6.20;99.90
61201;DHT22;47065;52.898;6.992;2023-12-20T11:17:11;6.20;99.90
61201;DHT22;47065;52.898;6.992;2023-12-20T11:22:27;6.30;99.90
61201;DHT22;47065;52.898;6.992;2023-12-20T11:25:19;6.30;99.90
61201;DHT22;47065;52.898;6.992;2023-12-20T11:27:44;6.40;99.90
61201;DHT22;47065;52.898;6.992;2023-12-20T11:30:41;6.40;99.90
61201;DHT22;47065;52.898;6.992;2023-12-20T11:33:07;6.40;99.90
61201;DHT22;47065;52.898;6.992;2023-12-20T11:35:34;6.50;99.90
61201;DHT22;47065;52.898;6.992;2023-12-20T11:38:00;6.50;99.90
61201;DHT22;47065;52.898;6.992;2023-12-20T11:40:26;6.50;99.90
61201;DHT22;47065;52.898;6.992;2023-12-20T11:42:52;6.50;99.90
61201;DHT22;47065;52.898;6.992;2023-12-20T11:45:24;6.60;99.90
61201;DHT22;47065;52.898;6.992;2023-12-20T11:47:51;6.60;99.90
61201;DHT22;47065;52.898;6.992;2023-12-20T11:50:19;6.60;99.90
61201;DHT22;47065;52.898;6.992;2023-12-20T11:52:45;6.60;99.90
61201;DHT22;47065;52.898;6.992;2023-12-20T11:55:11;6.70;99.90
61201;DHT22;47065;52.898;6.992;2023-12-20T11:57:37;6.70;99.90
61201;DHT22;47065;52.898;6.992;2023-12-20T12:00:03;6.70;99.90
61201;DHT22;47065;52.898;6.992;2023-12-20T12:02:30;6.70;99.90
61201;DHT22;47065;52.898;6.992;2023-12-20T12:04:55;6.80;99.90
61201;DHT22;47065;52.898;6.992;2023-12-20T12:07:22;6.80;99.90
61201;DHT22;47065;52.898;6.992;2023-12-20T12:09:48;6.80;99.90
61201;DHT22;47065;52.898;6.992;2023-12-20T12:12:14;6.90;99.90
61201;DHT22;47065;52.898;6.992;2023-12-20T12:14:40;6.90;99.90
61201;DHT22;47065;52.898;6.992;2023-12-20T12:17:12;6.90;99.90
61201;DHT22;47065;52.898;6.992;2023-12-20T12:19:39;6.90;99.90
61201;DHT22;47065;52.898;6.992;2023-12-20T12:22:06;6.90;99.90
61201;DHT22;47065;52.898;6.992;2023-12-20T12:24:39;6.90;99.90
61201;DHT22;47065;52.898;6.992;2023-12-20T12:27:08;6.90;99.90
61201;DHT22;47065;52.898;6.992;2023-12-20T12:29:35;6.90;99.90
61201;DHT22;47065;52.898;6.992;2023-12-20T12:32:04;6.90;99.90
61201;DHT22;47065;52.898;6.992;2023-12-20T12:34:30;6.90;99.90
61201;DHT22;47065;52.898;6.992;2023-12-20T12:36:56;7.00;99.90
61201;DHT22;47065;52.898;6.992;2023-12-20T12:39:24;6.90;99.90
61201;DHT22;47065;52.898;6.992;2023-12-20T12:41:53;7.00;99.90
61201;DHT22;47065;52.898;6.992;2023-12-20T12:44:19;7.00;99.90
61201;DHT22;47065;52.898;6.992;2023-12-20T12:46:48;7.00;99.90
61201;DHT22;47065;52.898;6.992;2023-12-20T12:49:16;7.00;99.90
61201;DHT22;47065;52.898;6.992;2023-12-20T12:51:43;7.00;99.90
61201;DHT22;47065;52.898;6.992;2023-12-20T12:54:09;7.00;99.90
61201;DHT22;47065;52.898;6.992;2023-12-20T12:56:36;7.00;99.90
61201;DHT22;47065;52.898;6.992;2023-12-20T12:59:02;7.00;99.90
61201;DHT22;47065;52.898;6.992;2023-12-20T13:01:27;7.00;99.90
61201;DHT22;47065;52.898;6.992;2023-12-20T13:03:53;7.00;99.90
61201;DHT22;47065;52.898;6.992;2023-12-20T13:06:19;7.00;99.90
61201;DHT22;47065;52.898;6.992;2023-12-20T13:08:45;7.00;99.90
61201;DHT22;47065;52.898;6.992;2023-12-20T13:11:11;7.00;99.90
61201;DHT22;47065;52.898;6.992;2023-12-20T13:13:36;7.00;99.90
61201;DHT22;47065;52.898;6.992;2023-12-20T13:16:02;7.00;99.90
61201;DHT22;47065;52.898;6.992;2023-12-20T13:18:28;7.00;99.90
61201;DHT22;47065;52.898;6.992;2023-12-20T13:20:53;7.10;99.90
61201;DHT22;47065;52.898;6.992;2023-12-20T13:23:19;7.10;99.90
61201;DHT22;47065;52.898;6.992;2023-12-20T13:25:45;7.10;99.90
61201;DHT22;47065;52.898;6.992;2023-12-20T13:28:12;7.10;99.90
61201;DHT22;47065;52.898;6.992;2023-12-20T13:30:38;7.10;99.90
61201;DHT22;47065;52.898;6.992;2023-12-20T13:33:04;7.10;99.90
61201;DHT22;47065;52.898;6.992;2023-12-20T13:35:31;7.10;99.90
61201;DHT22;47065;52.898;6.992;2023-12-20T13:37:57;7.00;99.90
61201;DHT22;47065;52.898;6.992;2023-12-20T13:40:23;7.00;99.90
61201;DHT22;47065;52.898;6.992;2023-12-20T13:42:49;7.00;99.90
61201;DHT22;47065;52.898;6.992;2023-12-20T13:45:14;6.90;99.90
61201;DHT22;47065;52.898;6.992;2023-12-20T13:47:40;6.90;99.90
61201;DHT22;47065;52.898;6.992;2023-12-20T13:50:06;6.80;99.90
61201;DHT22;47065;52.898;6.992;2023-12-20T13:52:32;6.80;99.90
61201;DHT22;47065;52.898;6.992;2023-12-20T13:54:57;6.70;99.90
61201;DHT22;47065;52.898;6.992;2023-12-20T13:57:23;6.70;99.90
61201;DHT22;47065;52.898;6.992;2023-12-20T13:59:48;6.60;99.90
61201;DHT22;47065;52.898;6.992;2023-12-20T14:02:14;6.60;99.90
61201;DHT22;47065;52.898;6.992;2023-12-20T14:04:41;6.50;99.90
61201;DHT22;47065;52.898;6.992;2023-12-20T14:07:07;6.50;99.90
61201;DHT22;47065;52.898;6.992;2023-12-20T14:09:33;6.40;99.90
61201;DHT22;47065;52.898;6.992;2023-12-20T14:11:59;6.30;99.90
61201;DHT22;47065;52.898;6.992;2023-12-20T14:14:25;6.30;99.90
61201;DHT22;47065;52.898;6.992;2023-12-20T14:16:51;6.20;99.90
61201;DHT22;47065;52.898;6.992;2023-12-20T14:19:17;6.20;99.90
61201;DHT22;47065;52.898;6.992;2023-12-20T14:21:43;6.10;99.90
61201;DHT22;47065;52.898;6.992;2023-12-20T14:24:12;6.10;99.90
61201;DHT22;47065;52.898;6.992;2023-12-20T14:26:40;6.10;99.90
61201;DHT22;47065;52.898;6.992;2023-12-20T14:29:06;6.10;99.90
61201;DHT22;47065;52.898;6.992;2023-12-20T14:31:33;6.00;99.90
61201;DHT22;47065;52.898;6.992;2023-12-20T14:33:58;6.00;99.90
61201;DHT22;47065;52.898;6.992;2023-12-20T14:36:25;6.00;99.90
61201;DHT22;47065;52.898;6.992;2023-12-20T14:38:50;6.00;99.90
61201;DHT22;47065;52.898;6.992;2023-12-20T14:41:16;6.00;99.90
61201;DHT22;47065;52.898;6.992;2023-12-20T14:43:44;6.00;99.90
61201;DHT22;47065;52.898;6.992;2023-12-20T14:46:10;6.00;99.90
61201;DHT22;47065;52.898;6.992;2023-12-20T14:48:35;6.00;99.90
61201;DHT22;47065;52.898;6.992;2023-12-20T14:51:01;6.00;99.90
61201;DHT22;47065;52.898;6.992;2023-12-20T14:53:26;6.00;99.90
61201;DHT22;47065;52.898;6.992;2023-12-20T14:55:52;6.00;99.90
61201;DHT22;47065;52.898;6.992;2023-12-20T14:58:18;6.00;99.90
61201;DHT22;47065;52.898;6.992;2023-12-20T15:00:43;6.00;99.90
61201;DHT22;47065;52.898;6.992;2023-12-20T15:03:10;5.90;99.90
61201;DHT22;47065;52.898;6.992;2023-12-20T15:05:36;6.00;99.90
61201;DHT22;47065;52.898;6.992;2023-12-20T15:08:02;5.90;99.90
61201;DHT22;47065;52.898;6.992;2023-12-20T15:10:28;5.90;99.90
61201;DHT22;47065;52.898;6.992;2023-12-20T15:12:54;5.90;99.90
61201;DHT22;47065;52.898;6.992;2023-12-20T15:15:21;5.90;99.90
61201;DHT22;47065;52.898;6.992;2023-12-20T15:17:47;5.90;99.90
61201;DHT22;47065;52.898;6.992;2023-12-20T15:20:13;5.90;99.90
61201;DHT22;47065;52.898;6.992;2023-12-20T15:22:39;5.90;99.90
61201;DHT22;47065;52.898;6.992;2023-12-20T15:25:06;5.90;99.90
61201;DHT22;47065;52.898;6.992;2023-12-20T15:27:34;5.90;99.90
61201;DHT22;47065;52.898;6.992;2023-12-20T15:30:03;5.90;99.90
61201;DHT22;47065;52.898;6.992;2023-12-20T15:32:29;5.90;99.90
61201;DHT22;47065;52.898;6.992;2023-12-20T15:34:54;5.90;99.90
61201;DHT22;47065;52.898;6.992;2023-12-20T15:37:21;5.90;99.90
61201;DHT22;47065;52.898;6.992;2023-12-20T15:39:47;5.90;99.90
61201;DHT22;47065;52.898;6.992;2023-12-20T15:42:12;5.90;99.90